createdAt,value
2023-01-01T06:17:37.848Z,1003.41
2023-01-01T06:27:38.987Z,1003.47
2023-01-01T06:37:37.941Z,1003.44
2023-01-01T06:47:37.847Z,1003.44
2023-01-01T06:57:38.084Z,1003.64
2023-01-01T07:07:37.903Z,1003.96
2023-01-01T07:17:37.956Z,1004.20
2023-01-01T07:27:37.963Z,1004.27
2023-01-01T07:37:37.924Z,1004.41
2023-01-01T07:47:37.927Z,1004.60
2023-01-01T07:57:38.285Z,1005.04
2023-01-01T08:07:38.406Z,1005.08
2023-01-01T08:17:42.591Z,1005.36
2023-01-01T08:27:38.114Z,1005.51
2023-01-01T08:37:38.197Z,1005.52
2023-01-01T08:47:38.370Z,1005.65
2023-01-01T08:57:38.208Z,1005.83
2023-01-01T09:07:38.238Z,1006.01
2023-01-01T09:17:38.277Z,1006.21
2023-01-01T09:27:38.375Z,1006.48
2023-01-01T09:37:38.196Z,1006.96
2023-01-01T09:47:38.121Z,1006.95
2023-01-01T09:57:38.109Z,1007.84
2023-01-01T10:07:38.296Z,1007.53
2023-01-01T10:17:38.256Z,1007.68
2023-01-01T10:27:38.218Z,1007.89
2023-01-01T10:37:38.155Z,1007.87
2023-01-01T10:47:39.367Z,1008.39
2023-01-01T10:57:38.302Z,1008.31
2023-01-01T11:07:38.261Z,1008.30
2023-01-01T11:17:38.337Z,1008.18
2023-01-01T11:27:38.393Z,1008.17
2023-01-01T11:37:38.456Z,1008.10
2023-01-01T11:47:38.439Z,1008.23
2023-01-01T11:57:38.318Z,1007.92
2023-01-01T12:07:38.374Z,1007.87
2023-01-01T12:17:38.325Z,1008.03
2023-01-01T12:27:38.593Z,1008.30
2023-01-01T12:37:38.397Z,1008.42
2023-01-01T12:47:38.288Z,1008.51
2023-01-01T12:57:38.287Z,1008.60
2023-01-01T13:07:38.457Z,1008.54
2023-01-01T13:17:38.341Z,1008.48
2023-01-01T13:27:38.347Z,1008.37
2023-01-01T13:37:38.492Z,1008.46
2023-01-01T13:47:38.692Z,1008.66
2023-01-01T13:57:38.564Z,1008.62
2023-01-01T14:07:51.103Z,1008.52
2023-01-01T14:17:38.496Z,1008.62
2023-01-01T14:27:38.764Z,1008.88
2023-01-01T14:37:38.836Z,1008.94
2023-01-01T14:47:38.520Z,1009.03
2023-01-01T14:57:38.553Z,1009.02
2023-01-01T15:07:38.654Z,1008.97
2023-01-01T15:17:38.508Z,1008.89
2023-01-01T15:27:38.698Z,1009.01
2023-01-01T15:37:38.573Z,1009.17
2023-01-01T15:47:39.563Z,1009.33
2023-01-01T15:57:38.557Z,1009.43
2023-01-01T16:07:38.694Z,1009.34
2023-01-01T16:17:38.590Z,1009.08
2023-01-01T16:27:38.656Z,1009.20
2023-01-01T16:37:38.657Z,1008.99
2023-01-01T16:47:38.656Z,1009.09
2023-01-01T16:57:38.720Z,1009.07
2023-01-01T17:07:38.794Z,1009.11
2023-01-01T17:17:38.785Z,1009.18
2023-01-01T17:27:38.712Z,1009.33
2023-01-01T17:37:38.701Z,1009.38
2023-01-01T17:47:38.840Z,1009.55
2023-01-01T17:57:38.663Z,1009.46
2023-01-01T18:07:38.692Z,1009.31
2023-01-01T18:17:38.760Z,1009.21
2023-01-01T18:27:38.846Z,1009.18
2023-01-01T18:37:38.814Z,1008.86
2023-01-01T18:47:39.077Z,1008.83
2023-01-01T18:57:39.223Z,1008.85
2023-01-01T19:07:39.206Z,1008.78
2023-01-01T19:17:39.443Z,1008.82
